createdAt,value
2023-03-06T00:00:25.071Z,96849.20
2023-03-06T00:02:52.659Z,96848.80
2023-03-06T00:05:20.297Z,96851.60
2023-03-06T00:07:48.079Z,96853.00
2023-03-06T00:10:18.550Z,96850.40
2023-03-06T00:12:46.233Z,96846.20
2023-03-06T00:15:14.306Z,96851.60
2023-03-06T00:17:41.774Z,96847.80
2023-03-06T00:20:11.814Z,96849.00
2023-03-06T00:22:39.700Z,96851.40
2023-03-06T00:25:08.057Z,96851.60
2023-03-06T00:27:35.280Z,96845.20
2023-03-06T00:30:02.325Z,96850.40
2023-03-06T00:32:29.938Z,96847.40
2023-03-06T00:34:57.989Z,96845.60
2023-03-06T00:37:25.923Z,96846.40
2023-03-06T00:39:53.238Z,96843.20
2023-03-06T00:42:22.333Z,96834.20
2023-03-06T00:44:52.090Z,96834.40
2023-03-06T00:47:19.348Z,96827.40
2023-03-06T00:49:46.374Z,96825.60
2023-03-06T00:52:13.842Z,96824.60
2023-03-06T00:54:41.319Z,96818.80
2023-03-06T00:57:09.053Z,96818.60
2023-03-06T00:59:36.160Z,96812.60
2023-03-06T01:02:03.743Z,96807.20
2023-03-06T01:04:32.417Z,96801.60
2023-03-06T01:06:59.700Z,96799.00
2023-03-06T01:09:29.903Z,96794.80
2023-03-06T01:11:57.375Z,96789.60
2023-03-06T01:14:24.727Z,96784.00
2023-03-06T01:16:51.803Z,96782.20
2023-03-06T01:19:19.024Z,96779.80
2023-03-06T01:21:46.914Z,96777.20
2023-03-06T01:24:14.147Z,96774.60
2023-03-06T01:26:43.852Z,96772.40
2023-03-06T01:29:10.989Z,96769.20
2023-03-06T01:31:38.319Z,96764.80
2023-03-06T01:34:05.672Z,96763.00
2023-03-06T01:36:32.863Z,96764.60
2023-03-06T01:38:59.976Z,96755.60
2023-03-06T01:41:27.170Z,96758.40
2023-03-06T01:43:57.383Z,96756.20
2023-03-06T01:46:30.879Z,96754.80
2023-03-06T01:49:19.182Z,96749.80
2023-03-06T01:52:00.926Z,96749.20
2023-03-06T01:54:49.576Z,96741.20
2023-03-06T01:57:23.115Z,96734.20
2023-03-06T01:59:56.261Z,96735.00
2023-03-06T02:02:24.495Z,96732.00
2023-03-06T02:04:51.623Z,96727.00
2023-03-06T02:07:20.270Z,96727.60
2023-03-06T02:09:47.426Z,96725.40
2023-03-06T02:12:19.602Z,96719.40
2023-03-06T02:14:49.939Z,96719.80
2023-03-06T02:17:19.903Z,96709.40
2023-03-06T02:20:03.490Z,96710.00
2023-03-06T02:22:39.371Z,96702.60
2023-03-06T02:25:41.295Z,96695.80
2023-03-06T02:28:13.913Z,96694.80
2023-03-06T02:30:45.796Z,96687.80
2023-03-06T02:33:18.948Z,96686.40
2023-03-06T02:36:00.619Z,96683.40
2023-03-06T02:38:32.769Z,96680.40
2023-03-06T02:41:02.121Z,96675.60
2023-03-06T02:43:33.462Z,96668.60
2023-03-06T02:46:00.555Z,96669.20
2023-03-06T02:48:28.019Z,96665.00
2023-03-06T02:50:55.066Z,96668.20
2023-03-06T02:53:22.219Z,96662.60
2023-03-06T02:55:50.251Z,96659.60
2023-03-06T02:58:21.451Z,96652.00
2023-03-06T03:00:49.600Z,96647.40
2023-03-06T03:03:20.029Z,96652.40
2023-03-06T03:05:47.401Z,96653.20
2023-03-06T03:08:24.158Z,96647.00
2023-03-06T03:10:53.717Z,96643.80
2023-03-06T03:13:20.852Z,96644.80
2023-03-06T03:16:02.180Z,96639.80
2023-03-06T03:18:29.858Z,96629.80
2023-03-06T03:20:59.774Z,96629.60
2023-03-06T03:23:29.379Z,96632.20
2023-03-06T03:26:10.720Z,96629.40
2023-03-06T03:28:40.053Z,96631.20
2023-03-06T03:31:10.030Z,96627.60
2023-03-06T03:33:41.171Z,96626.00
2023-03-06T03:36:11.777Z,96623.60
2023-03-06T03:38:44.030Z,96621.20
2023-03-06T03:41:14.370Z,96613.00
2023-03-06T03:43:47.963Z,96613.40
2023-03-06T03:46:15.546Z,96608.00
2023-03-06T03:48:43.172Z,96612.40
2023-03-06T03:51:16.533Z,96608.80
2023-03-06T03:53:49.408Z,96607.80
2023-03-06T03:56:19.563Z,96606.20
2023-03-06T03:58:54.194Z,96606.00
2023-03-06T04:01:21.954Z,96608.60
2023-03-06T04:03:54.344Z,96611.20
2023-03-06T04:06:24.338Z,96608.00
2023-03-06T04:08:52.206Z,96600.80
2023-03-06T04:11:19.488Z,96590.40
2023-03-06T04:13:47.115Z,96589.00
2023-03-06T04:16:17.454Z,96586.60
2023-03-06T04:18:44.720Z,96586.20
2023-03-06T04:21:11.914Z,96587.60
2023-03-06T04:23:42.474Z,96586.80
2023-03-06T04:26:12.351Z,96579.60
2023-03-06T04:28:39.645Z,96578.20
2023-03-06T04:31:11.216Z,96574.40
2023-03-06T04:33:38.350Z,96568.40
2023-03-06T04:36:06.542Z,96567.40
2023-03-06T04:38:36.856Z,96566.20
2023-03-06T04:41:04.708Z,96561.60
2023-03-06T04:43:31.857Z,96559.40
2023-03-06T04:46:00.215Z,96562.80
2023-03-06T04:48:27.785Z,96558.40
2023-03-06T04:50:54.954Z,96557.40
2023-03-06T04:53:22.199Z,96555.40
2023-03-06T04:55:49.279Z,96554.40
2023-03-06T04:58:16.602Z,96549.20
2023-03-06T05:00:44.007Z,96553.00
2023-03-06T05:03:14.549Z,96550.00
2023-03-06T05:05:42.072Z,96546.80
2023-03-06T05:08:13.217Z,96546.20
2023-03-06T05:10:40.439Z,96545.40
2023-03-06T05:13:07.519Z,96539.40
2023-03-06T05:15:34.630Z,96537.60
2023-03-06T05:18:01.878Z,96533.60
2023-03-06T05:20:29.137Z,96532.60
2023-03-06T05:22:56.383Z,96532.40
2023-03-06T05:25:23.452Z,96529.20
2023-03-06T05:27:50.580Z,96534.20
2023-03-06T05:30:22.565Z,96536.60
2023-03-06T05:32:54.087Z,96538.60
2023-03-06T05:35:23.850Z,96532.00
2023-03-06T05:37:51.160Z,96538.20
2023-03-06T05:40:26.500Z,96536.40
2023-03-06T05:43:04.113Z,96533.60
2023-03-06T05:45:37.532Z,96533.20
2023-03-06T05:48:07.643Z,96529.60
2023-03-06T05:50:35.088Z,96529.00
2023-03-06T05:53:05.939Z,96534.00
2023-03-06T05:55:33.455Z,96530.00
2023-03-06T05:58:02.955Z,96531.40
2023-03-06T06:00:32.432Z,96530.40
2023-03-06T06:03:03.514Z,96527.00
2023-03-06T06:05:32.849Z,96529.60
2023-03-06T06:08:02.700Z,96526.40
2023-03-06T06:10:33.901Z,96527.60
2023-03-06T06:13:04.610Z,96528.40
2023-03-06T06:15:31.954Z,96529.80
2023-03-06T06:17:59.218Z,96523.60
2023-03-06T06:20:28.656Z,96527.80
2023-03-06T06:22:55.876Z,96528.80
2023-03-06T06:25:25.373Z,96531.60
2023-03-06T06:27:58.325Z,96527.80
2023-03-06T06:30:25.706Z,96526.00
2023-03-06T06:32:55.828Z,96528.40
2023-03-06T06:35:23.341Z,96527.40
2023-03-06T06:37:53.508Z,96524.00
2023-03-06T06:40:22.939Z,96525.60
2023-03-06T06:42:50.261Z,96518.20
2023-03-06T06:45:19.559Z,96520.80
2023-03-06T06:47:50.219Z,96524.40
2023-03-06T06:50:17.411Z,96517.20
2023-03-06T06:52:44.415Z,96517.40
2023-03-06T06:55:14.583Z,96516.80
2023-03-06T06:57:46.250Z,96510.20
2023-03-06T07:00:19.460Z,96509.80
2023-03-06T07:02:49.338Z,96511.40
2023-03-06T07:05:16.685Z,96507.60
2023-03-06T07:07:45.051Z,96505.00
2023-03-06T07:10:15.881Z,96504.00
2023-03-06T07:12:43.500Z,96510.00
2023-03-06T07:15:16.383Z,96503.80
2023-03-06T07:17:50.162Z,96499.20
2023-03-06T07:20:20.516Z,96492.20
2023-03-06T07:22:53.015Z,96497.40
2023-03-06T07:25:22.900Z,96494.80
2023-03-06T07:27:59.400Z,96493.00
2023-03-06T07:30:35.528Z,96495.60
2023-03-06T07:33:16.093Z,96496.20
2023-03-06T07:35:49.390Z,96493.60
2023-03-06T07:38:23.439Z,96493.80
2023-03-06T07:40:57.482Z,96497.00
2023-03-06T07:43:27.222Z,96497.40
2023-03-06T07:46:05.285Z,96493.40
2023-03-06T07:48:33.297Z,96491.60
2023-03-06T07:51:05.803Z,96492.60
2023-03-06T07:53:37.377Z,96490.60
2023-03-06T07:56:20.055Z,96489.40
2023-03-06T07:58:48.154Z,96490.00
2023-03-06T08:01:20.801Z,96486.80
2023-03-06T08:03:53.901Z,96493.00
2023-03-06T08:06:24.099Z,96496.60
2023-03-06T08:08:57.843Z,96493.40
2023-03-06T08:11:27.690Z,96494.20
2023-03-06T08:14:02.010Z,96491.80
2023-03-06T08:16:32.900Z,96493.20
2023-03-06T08:19:03.170Z,96495.80
2023-03-06T08:21:33.516Z,96493.80
2023-03-06T08:24:03.677Z,96490.60
2023-03-06T08:26:32.335Z,96488.60
2023-03-06T08:29:09.262Z,96492.00
2023-03-06T08:31:44.657Z,96489.60
2023-03-06T08:34:18.461Z,96490.40
2023-03-06T08:36:46.003Z,96488.60
2023-03-06T08:39:15.784Z,96487.40
2023-03-06T08:41:46.103Z,96490.00
2023-03-06T08:44:16.506Z,96491.80
2023-03-06T08:46:43.706Z,96496.20
2023-03-06T08:49:14.042Z,96493.20
2023-03-06T08:51:44.365Z,96489.60
2023-03-06T08:54:13.306Z,96492.60
2023-03-06T08:56:41.041Z,96500.60
2023-03-06T08:59:14.286Z,96499.80
2023-03-06T09:01:46.983Z,96503.00
2023-03-06T09:04:17.312Z,96503.60
2023-03-06T09:06:45.486Z,96504.60
2023-03-06T09:09:13.628Z,96507.40
2023-03-06T09:11:43.368Z,96499.20
2023-03-06T09:14:10.727Z,96499.60
2023-03-06T09:16:38.111Z,96500.00
2023-03-06T09:19:05.503Z,96496.80
2023-03-06T09:21:35.913Z,96487.40
2023-03-06T09:24:06.716Z,96498.60
2023-03-06T09:26:45.453Z,96499.80
2023-03-06T09:29:13.235Z,96494.20
2023-03-06T09:31:43.603Z,96494.40
2023-03-06T09:34:13.965Z,96493.80
2023-03-06T09:36:55.339Z,96494.60
2023-03-06T09:39:27.457Z,96489.40
2023-03-06T09:41:57.309Z,96488.80
2023-03-06T09:44:34.485Z,96486.40
2023-03-06T09:47:28.661Z,96484.60
2023-03-06T09:50:20.796Z,96482.40
2023-03-06T09:53:02.959Z,96483.40
2023-03-06T09:55:39.231Z,96479.00
2023-03-06T09:58:16.147Z,96478.00
2023-03-06T10:01:01.426Z,96484.60
2023-03-06T10:03:28.557Z,96485.00
2023-03-06T10:06:03.442Z,96481.60
2023-03-06T10:08:47.223Z,96485.00
2023-03-06T10:11:25.001Z,96486.80
2023-03-06T10:13:59.145Z,96474.80
2023-03-06T10:16:31.516Z,96477.80
2023-03-06T10:19:03.642Z,96473.00
2023-03-06T10:21:45.923Z,96476.00
2023-03-06T10:24:18.974Z,96482.20
2023-03-06T10:26:54.934Z,96487.60
2023-03-06T10:29:56.413Z,96486.80
2023-03-06T10:32:48.357Z,96487.00
2023-03-06T10:35:22.089Z,96479.00
2023-03-06T10:37:52.366Z,96476.60
2023-03-06T10:40:28.724Z,96478.20
2023-03-06T10:43:09.502Z,96482.00
2023-03-06T10:45:49.817Z,96483.20
2023-03-06T10:48:24.004Z,96483.20
2023-03-06T10:50:53.209Z,96482.40
2023-03-06T10:53:29.279Z,96476.40
2023-03-06T10:56:04.767Z,96476.00
2023-03-06T10:58:35.341Z,96475.00
2023-03-06T11:01:05.448Z,96472.80
2023-03-06T11:03:41.558Z,96470.40
2023-03-06T11:06:35.428Z,96464.40
2023-03-06T11:09:23.782Z,96462.20
2023-03-06T11:12:11.842Z,96460.00
2023-03-06T11:14:43.497Z,96455.40
2023-03-06T11:17:28.526Z,96450.60
2023-03-06T11:20:22.584Z,96447.40
2023-03-06T11:23:28.469Z,96434.00
2023-03-06T11:26:08.431Z,96433.80
2023-03-06T11:29:24.880Z,96429.60
2023-03-06T11:31:59.636Z,96419.60
2023-03-06T11:34:50.178Z,96421.20
2023-03-06T11:37:44.585Z,96418.60
2023-03-06T11:40:11.562Z,96413.20
2023-03-06T11:42:46.319Z,96409.40
2023-03-06T11:45:33.028Z,96410.40
2023-03-06T11:48:42.499Z,96401.80
2023-03-06T11:51:21.561Z,96399.40
2023-03-06T11:53:49.327Z,96398.20
2023-03-06T11:56:18.877Z,96395.20
2023-03-06T11:59:03.709Z,96392.00
2023-03-06T12:01:40.124Z,96388.00
2023-03-06T12:04:32.237Z,96384.20
2023-03-06T12:07:36.002Z,96379.60
2023-03-06T12:10:18.122Z,96379.20
2023-03-06T12:13:06.537Z,96382.00
2023-03-06T12:16:07.473Z,96385.60
2023-03-06T12:19:34.281Z,96375.00
2023-03-06T12:22:32.475Z,96377.60
2023-03-06T12:25:31.791Z,96376.00
2023-03-06T12:28:03.723Z,96374.40
2023-03-06T12:30:49.509Z,96370.00
2023-03-06T12:33:40.723Z,96379.80
2023-03-06T12:36:33.635Z,96379.40
2023-03-06T12:39:09.109Z,96376.80
2023-03-06T12:41:54.418Z,96383.20
2023-03-06T12:45:05.174Z,96374.60
2023-03-06T12:47:39.079Z,96378.20
2023-03-06T12:50:42.033Z,96378.20
2023-03-06T12:53:19.354Z,96368.40
2023-03-06T12:55:49.022Z,96374.80
2023-03-06T12:58:31.366Z,96372.40
2023-03-06T13:01:09.102Z,96378.00
2023-03-06T13:04:04.999Z,96377.80
2023-03-06T13:07:07.183Z,96376.80
2023-03-06T13:10:02.971Z,96382.00
2023-03-06T13:12:50.736Z,96375.80
2023-03-06T13:15:41.650Z,96378.60
2023-03-06T13:18:27.109Z,96378.00
2023-03-06T13:20:56.303Z,96384.20
2023-03-06T13:23:43.955Z,96384.60
2023-03-06T13:26:28.817Z,96380.60
2023-03-06T13:29:06.382Z,96391.60
2023-03-06T13:31:33.693Z,96389.80
2023-03-06T13:34:06.116Z,96394.00
2023-03-06T13:36:37.121Z,96392.60
2023-03-06T13:39:10.241Z,96393.00
2023-03-06T13:41:54.694Z,96393.00
2023-03-06T13:44:24.921Z,96394.40
2023-03-06T13:47:06.719Z,96389.80
2023-03-06T13:49:35.302Z,96391.60
2023-03-06T13:52:19.764Z,96388.40
2023-03-06T13:54:58.986Z,96381.80
2023-03-06T13:57:44.256Z,96381.60
2023-03-06T14:00:40.321Z,96374.20
2023-03-06T14:03:18.384Z,96376.60
2023-03-06T14:05:50.774Z,96373.00
2023-03-06T14:08:20.978Z,96369.00
2023-03-06T14:10:59.492Z,96360.20
2023-03-06T14:13:46.657Z,96365.40
2023-03-06T14:16:40.479Z,96360.40
2023-03-06T14:19:19.459Z,96365.40
2023-03-06T14:21:55.846Z,96366.00
2023-03-06T14:24:34.002Z,96363.40
2023-03-06T14:27:01.443Z,96365.20
2023-03-06T14:29:29.948Z,96360.80
2023-03-06T14:31:59.842Z,96364.20
2023-03-06T14:34:29.723Z,96363.60
2023-03-06T14:37:10.587Z,96355.20
2023-03-06T14:39:40.759Z,96352.20
2023-03-06T14:42:19.521Z,96355.20
2023-03-06T14:44:48.966Z,96356.40
2023-03-06T14:47:30.049Z,96353.00
2023-03-06T14:50:32.489Z,96351.80
2023-03-06T14:53:18.419Z,96350.00
2023-03-06T14:56:00.545Z,96349.60
2023-03-06T14:58:52.724Z,96354.80
2023-03-06T15:01:29.954Z,96350.80
2023-03-06T15:04:03.846Z,96350.80
2023-03-06T15:06:37.784Z,96348.00
2023-03-06T15:09:24.433Z,96346.00
2023-03-06T15:12:05.118Z,96347.20
2023-03-06T15:14:47.707Z,96346.40
2023-03-06T15:17:17.879Z,96355.20
2023-03-06T15:19:47.665Z,96350.60
2023-03-06T15:22:31.157Z,96351.00
2023-03-06T15:25:19.895Z,96345.40
2023-03-06T15:27:52.098Z,96345.40
2023-03-06T15:30:39.546Z,96344.20
2023-03-06T15:33:22.975Z,96344.00
2023-03-06T15:35:57.467Z,96346.40
2023-03-06T15:38:30.505Z,96343.40
2023-03-06T15:41:00.181Z,96344.80
2023-03-06T15:43:29.058Z,96348.80
2023-03-06T15:45:59.908Z,96351.40
2023-03-06T15:48:27.602Z,96351.80
2023-03-06T15:50:54.686Z,96355.60
2023-03-06T15:53:21.896Z,96357.00
2023-03-06T15:55:50.389Z,96353.40
2023-03-06T15:58:24.954Z,96353.40
2023-03-06T16:00:52.206Z,96352.80
2023-03-06T16:03:19.322Z,96360.60
2023-03-06T16:05:46.343Z,96360.20
2023-03-06T16:08:15.124Z,96362.80
2023-03-06T16:10:44.676Z,96366.20
2023-03-06T16:13:17.552Z,96368.00
2023-03-06T16:15:50.283Z,96369.60
2023-03-06T16:18:17.963Z,96370.40
2023-03-06T16:20:45.520Z,96371.20
2023-03-06T16:23:17.383Z,96370.60
2023-03-06T16:25:51.909Z,96374.00
2023-03-06T16:28:21.553Z,96376.80
2023-03-06T16:30:51.689Z,96376.80
2023-03-06T16:33:24.606Z,96377.60
2023-03-06T16:35:54.221Z,96381.00
2023-03-06T16:38:29.182Z,96381.00
2023-03-06T16:40:58.987Z,96379.40
2023-03-06T16:43:26.141Z,96385.20
2023-03-06T16:45:55.642Z,96379.80
2023-03-06T16:48:22.997Z,96385.20
2023-03-06T16:50:50.832Z,96386.80
2023-03-06T16:53:18.424Z,96384.00
2023-03-06T16:55:51.499Z,96386.40
2023-03-06T16:58:18.673Z,96398.00
2023-03-06T17:00:46.014Z,96394.80
2023-03-06T17:03:17.957Z,96396.20
2023-03-06T17:05:46.106Z,96402.40
2023-03-06T17:08:16.720Z,96407.00
2023-03-06T17:10:50.096Z,96405.20
2023-03-06T17:13:17.589Z,96408.00
2023-03-06T17:16:01.818Z,96407.80
2023-03-06T17:18:32.342Z,96414.40
2023-03-06T17:21:02.806Z,96416.60
2023-03-06T17:23:33.238Z,96422.80
2023-03-06T17:26:18.875Z,96428.60
2023-03-06T17:28:50.065Z,96430.60
2023-03-06T17:31:26.901Z,96429.60
2023-03-06T17:34:02.641Z,96435.40
2023-03-06T17:36:34.974Z,96432.40
2023-03-06T17:39:04.505Z,96439.00
2023-03-06T17:41:38.088Z,96440.40
2023-03-06T17:44:10.875Z,96444.80
2023-03-06T17:46:41.193Z,96446.40
2023-03-06T17:49:12.061Z,96443.00
2023-03-06T17:51:41.928Z,96445.20
2023-03-06T17:54:09.278Z,96449.00
2023-03-06T17:56:39.220Z,96452.40
2023-03-06T17:59:10.246Z,96456.00
2023-03-06T18:01:41.143Z,96459.80
2023-03-06T18:04:12.398Z,96457.20
2023-03-06T18:06:48.066Z,96459.80
2023-03-06T18:09:15.810Z,96463.60
2023-03-06T18:11:42.978Z,96461.60
2023-03-06T18:14:11.557Z,96460.40
2023-03-06T18:16:38.782Z,96462.20
2023-03-06T18:19:06.679Z,96463.80
2023-03-06T18:21:34.545Z,96462.00
2023-03-06T18:24:05.538Z,96460.80
2023-03-06T18:26:33.064Z,96458.40
2023-03-06T18:29:03.940Z,96460.60
2023-03-06T18:31:37.359Z,96458.00
2023-03-06T18:34:08.350Z,96453.40
2023-03-06T18:36:37.458Z,96460.80
2023-03-06T18:39:08.896Z,96460.60
2023-03-06T18:41:38.055Z,96458.00
2023-03-06T18:44:06.173Z,96454.60
2023-03-06T18:46:38.711Z,96461.40
2023-03-06T18:49:06.672Z,96460.20
2023-03-06T18:51:34.464Z,96463.80
2023-03-06T18:54:03.971Z,96465.20
2023-03-06T18:56:32.600Z,96466.00
2023-03-06T18:59:05.597Z,96466.60
2023-03-06T19:01:33.746Z,96465.40
2023-03-06T19:04:06.164Z,96467.60
2023-03-06T19:06:34.293Z,96466.20
2023-03-06T19:09:02.392Z,96472.20
2023-03-06T19:11:31.318Z,96467.40
2023-03-06T19:13:59.471Z,96469.60
2023-03-06T19:16:29.832Z,96467.20
2023-03-06T19:18:58.012Z,96471.40
2023-03-06T19:21:28.313Z,96476.80
2023-03-06T19:23:56.407Z,96479.80
2023-03-06T19:26:28.410Z,96479.00
2023-03-06T19:28:56.286Z,96479.60
2023-03-06T19:31:26.868Z,96481.00
2023-03-06T19:33:58.213Z,96478.00
2023-03-06T19:36:33.573Z,96478.80
2023-03-06T19:39:03.837Z,96486.40
2023-03-06T19:41:34.268Z,96489.00
2023-03-06T19:44:03.474Z,96488.60
2023-03-06T19:46:31.986Z,96494.20
2023-03-06T19:49:01.996Z,96492.80
2023-03-06T19:51:30.683Z,96496.80
2023-03-06T19:53:58.463Z,96497.40
2023-03-06T19:56:30.201Z,96495.00
2023-03-06T19:58:58.041Z,96494.60
2023-03-06T20:01:27.303Z,96496.80
2023-03-06T20:03:59.642Z,96496.20
2023-03-06T20:06:34.020Z,96497.00
2023-03-06T20:09:04.087Z,96499.00
2023-03-06T20:11:38.297Z,96494.60
2023-03-06T20:14:09.020Z,96498.00
2023-03-06T20:16:37.317Z,96495.20
2023-03-06T20:19:07.284Z,96498.40
2023-03-06T20:21:37.759Z,96495.20
2023-03-06T20:24:14.771Z,96496.20
2023-03-06T20:26:44.421Z,96498.00
2023-03-06T20:29:15.634Z,96492.20
2023-03-06T20:31:43.183Z,96499.60
2023-03-06T20:34:11.088Z,96501.60
2023-03-06T20:36:40.722Z,96508.40
2023-03-06T20:39:13.454Z,96509.80
2023-03-06T20:41:42.126Z,96514.00
2023-03-06T20:44:13.963Z,96508.20
2023-03-06T20:46:47.123Z,96512.20
2023-03-06T20:49:18.091Z,96518.40
2023-03-06T20:51:50.837Z,96506.00
2023-03-06T20:54:20.407Z,96517.60
2023-03-06T20:56:51.265Z,96514.20
2023-03-06T20:59:18.533Z,96520.20
2023-03-06T21:01:48.267Z,96518.60
2023-03-06T21:04:16.878Z,96516.00
2023-03-06T21:06:47.731Z,96508.20
2023-03-06T21:09:18.006Z,96509.00
2023-03-06T21:11:48.205Z,96503.20
2023-03-06T21:14:18.934Z,96507.60
2023-03-06T21:16:46.253Z,96506.20
2023-03-06T21:19:14.626Z,96508.60
2023-03-06T21:21:44.882Z,96503.80
2023-03-06T21:24:14.821Z,96504.00
2023-03-06T21:26:44.178Z,96506.00
2023-03-06T21:29:12.441Z,96503.40
2023-03-06T21:31:40.713Z,96504.80
2023-03-06T21:34:11.819Z,96507.80
2023-03-06T21:36:39.295Z,96507.20
2023-03-06T21:39:06.697Z,96502.40
2023-03-06T21:41:41.832Z,96505.20
2023-03-06T21:44:08.972Z,96508.20
2023-03-06T21:46:39.105Z,96503.40
2023-03-06T21:49:06.558Z,96503.20
2023-03-06T21:51:34.268Z,96504.00
2023-03-06T21:54:03.020Z,96508.00
2023-03-06T21:56:30.301Z,96502.60
2023-03-06T21:58:58.399Z,96499.40
2023-03-06T22:01:28.977Z,96500.00
2023-03-06T22:03:57.503Z,96496.80
2023-03-06T22:06:27.427Z,96499.20
2023-03-06T22:08:56.122Z,96497.20
2023-03-06T22:11:25.339Z,96495.40
2023-03-06T22:13:55.947Z,96493.40
2023-03-06T22:16:23.068Z,96499.00
2023-03-06T22:18:51.591Z,96496.00
2023-03-06T22:21:21.274Z,96493.80
2023-03-06T22:23:57.674Z,96485.40
2023-03-06T22:26:26.359Z,96489.60
2023-03-06T22:28:53.604Z,96484.60
2023-03-06T22:31:25.818Z,96483.20
2023-03-06T22:33:54.661Z,96476.40
2023-03-06T22:36:22.835Z,96466.00
2023-03-06T22:38:55.309Z,96461.20
2023-03-06T22:41:22.679Z,96458.00
2023-03-06T22:43:49.645Z,96460.40
2023-03-06T22:46:18.014Z,96464.80
2023-03-06T22:48:45.444Z,96469.40
2023-03-06T22:51:15.269Z,96468.80
2023-03-06T22:53:42.838Z,96465.80
2023-03-06T22:56:15.877Z,96470.40
2023-03-06T22:58:44.909Z,96471.00
2023-03-06T23:01:16.104Z,96466.40
2023-03-06T23:03:48.612Z,96461.40
2023-03-06T23:06:21.905Z,96450.20
2023-03-06T23:08:54.681Z,96459.00
2023-03-06T23:11:22.122Z,96458.40
2023-03-06T23:14:08.080Z,96455.60
2023-03-06T23:16:53.801Z,96452.20
2023-03-06T23:19:39.311Z,96454.80
2023-03-06T23:22:24.745Z,96453.00
2023-03-06T23:25:10.466Z,96448.00
2023-03-06T23:27:37.819Z,96448.40
2023-03-06T23:30:06.004Z,96447.40
2023-03-06T23:32:33.912Z,96444.20
2023-03-06T23:35:01.116Z,96442.60
2023-03-06T23:37:28.055Z,96440.40
2023-03-06T23:39:55.202Z,96441.80
2023-03-06T23:42:22.867Z,96444.60
2023-03-06T23:44:49.808Z,96440.40
2023-03-06T23:47:17.374Z,96432.80
2023-03-06T23:49:44.506Z,96438.80
2023-03-06T23:52:11.591Z,96438.20
2023-03-06T23:54:38.612Z,96435.20
2023-03-06T23:57:05.767Z,96437.40
2023-03-06T23:59:32.705Z,96437.80
